Hamilton, NY (13346)

8:02 AM EDT on April 29, 2017 (GMT -0400)
MKVGC | | Change Station

Elev 1134 ft 42.83 °N, 75.54 °W | Updated 1 hour ago

Overcast
Overcast
57.0 °F
Feels Like 57.0 °F
N
0.0
Wind Variable Wind from North

Today
High -- | Low -- °F
--% Chance of Precip.
Yesterday
High -- | Low -- °F
Precip. -- in
Pressure 29.99 in
Visibility 10.0 miles
Clouds Overcast 4500 ft
Dew Point 48 °F
Humidity 71%
Rainfall 0.00 in
Snow Depth Not available.
5:58 AM 8:00 PM
Waxing Crescent, 13% visible
METAR KRME 291153Z 00000KT 10SM OVC045 15/12 A3000 RMK AO2 SLP155 T01500122 10150 20128 51010 $
Pressure 29.99 in
Visibility 10.0 miles
Clouds Overcast 4500 ft
Dew Point 48 °F
Humidity 71%
Rainfall 0.00 in
Snow Depth Not available.
5:58 AM 8:00 PM
Waxing Crescent, 13% visible
METAR KRME 291153Z 00000KT 10SM OVC045 15/12 A3000 RMK AO2 SLP155 T01500122 10150 20128 51010 $

Get Severe Weather Alerts

Thanks for signing up!

Be on the lookout for a verification email in your inbox.

You'll start receiving the daily forecast at 8 AM.

×

10-Day Weather Forecast

Almanac

Astronomy

Apr. 29, 2017 Rise Set
Actual Time
Civil Twilight
Nautical Twilight
Astronomical Twilight
Moon
Length of Visible Light
Length of Day
Tomorrow will be .
, % of the Moon is Illuminated

Today's Extremes

State Highs State Lows

Community

WunderPhotos

WunderBlog® & News

Nearby

Air Quality

  Air Quality AQ Index Pollutant
Not available.

Snow Depth

Station Depth Elevation

Earthquake Activity

City Distance Mag. Time & Date
Minimum magnitude displayed is 2.5.

Coastal Water Temperatures

Place Temperature

Stations

Nearby Weather Stations

Station Location Temp. Windchill Dew Point Humidity Wind Precip. Elev Updated Type
                   

Watches & Warnings

There are currently no watches in effect.